Pittston Township, Pennsylvania
Current Conditions -  °F | °C
As of 4:54 PM on Friday 26 Dec 2014 (Local Time) from KAVP Reporting Station
Clear Clear  
Wind Chill: 38°   Ceiling: Unl
Heat Index: 42°   Visibility: 10mi
Dew Point: 28°   Wind: 6mph
Humidity: 58%   Direction: 220°SW
Pressure: 30.18"   Gusts: NA
Location:  41.2973°N, 75.7399°W
Report Text: KAVP 262154Z 22005KT 10SM CLR 06/M02 A3018 RMK AO2 SLP224 T00561022
Loading
Personal Weather Stations






























Interactive Weather Map New forecast layout! Learn more

10-Day Weather Forecast

Advertisements
Track Severe Weather on mobile